sensor_id;sensor_type;location;lat;lon;timestamp;temperature;humidity
33414;DHT22;60055;41.884;12.534;2022-11-20T00:00:11;15.20;99.90
33414;DHT22;60055;41.884;12.534;2022-11-20T00:02:37;15.20;99.90
33414;DHT22;60055;41.884;12.534;2022-11-20T00:05:03;15.10;99.90
33414;DHT22;60055;41.884;12.534;2022-11-20T00:07:28;15.00;99.90
33414;DHT22;60055;41.884;12.534;2022-11-20T00:09:54;14.90;99.90
33414;DHT22;60055;41.884;12.534;2022-11-20T00:12:21;14.90;99.90
33414;DHT22;60055;41.884;12.534;2022-11-20T00:14:47;14.90;99.90
33414;DHT22;60055;41.884;12.534;2022-11-20T00:17:12;14.90;99.90
33414;DHT22;60055;41.884;12.534;2022-11-20T00:19:38;15.00;99.90
33414;DHT22;60055;41.884;12.534;2022-11-20T00:22:03;14.90;99.90
33414;DHT22;60055;41.884;12.534;2022-11-20T00:24:29;14.90;99.90
33414;DHT22;60055;41.884;12.534;2022-11-20T00:26:54;15.00;99.90
33414;DHT22;60055;41.884;12.534;2022-11-20T00:29:20;15.00;99.90
33414;DHT22;60055;41.884;12.534;2022-11-20T00:31:46;15.00;99.90
33414;DHT22;60055;41.884;12.534;2022-11-20T00:34:11;14.90;99.90
33414;DHT22;60055;41.884;12.534;2022-11-20T00:36:37;15.00;99.90
33414;DHT22;60055;41.884;12.534;2022-11-20T00:39:02;15.00;99.90
33414;DHT22;60055;41.884;12.534;2022-11-20T00:41:30;14.80;99.90
33414;DHT22;60055;41.884;12.534;2022-11-20T00:43:56;14.70;99.90
33414;DHT22;60055;41.884;12.534;2022-11-20T00:46:24;14.60;99.90
33414;DHT22;60055;41.884;12.534;2022-11-20T00:48:50;14.50;99.90
33414;DHT22;60055;41.884;12.534;2022-11-20T00:51:21;14.40;99.90
33414;DHT22;60055;41.884;12.534;2022-11-20T00:53:48;14.50;99.90
33414;DHT22;60055;41.884;12.534;2022-11-20T00:56:17;14.50;99.90
33414;DHT22;60055;41.884;12.534;2022-11-20T00:58:44;14.50;99.90
33414;DHT22;60055;41.884;12.534;2022-11-20T01:01:18;14.40;99.90
33414;DHT22;60055;41.884;12.534;2022-11-20T01:03:46;14.40;99.90
33414;DHT22;60055;41.884;12.534;2022-11-20T01:09:12;14.50;99.90
33414;DHT22;60055;41.884;12.534;2022-11-20T01:11:41;14.50;99.90
33414;DHT22;60055;41.884;12.534;2022-11-20T01:14:10;14.50;99.90
33414;DHT22;60055;41.884;12.534;2022-11-20T01:16:42;14.40;99.90
33414;DHT22;60055;41.884;12.534;2022-11-20T01:19:14;14.40;99.90
33414;DHT22;60055;41.884;12.534;2022-11-20T01:21:42;14.30;99.90
33414;DHT22;60055;41.884;12.534;2022-11-20T01:24:11;14.30;99.90
33414;DHT22;60055;41.884;12.534;2022-11-20T01:26:38;14.40;99.90
33414;DHT22;60055;41.884;12.534;2022-11-20T01:29:05;14.30;99.90
33414;DHT22;60055;41.884;12.534;2022-11-20T01:31:34;14.40;99.90
33414;DHT22;60055;41.884;12.534;2022-11-20T01:34:05;14.40;99.90
33414;DHT22;60055;41.884;12.534;2022-11-20T01:36:33;14.50;99.90
33414;DHT22;60055;41.884;12.534;2022-11-20T01:39:02;14.60;99.90
33414;DHT22;60055;41.884;12.534;2022-11-20T01:41:30;14.50;99.90
33414;DHT22;60055;41.884;12.534;2022-11-20T01:44:49;14.50;99.90
33414;DHT22;60055;41.884;12.534;2022-11-20T01:50:03;14.40;99.90
33414;DHT22;60055;41.884;12.534;2022-11-20T01:52:49;14.50;99.90
33414;DHT22;60055;41.884;12.534;2022-11-20T01:55:23;14.40;99.90
33414;DHT22;60055;41.884;12.534;2022-11-20T01:57:50;14.50;99.90
33414;DHT22;60055;41.884;12.534;2022-11-20T02:00:18;14.40;99.90
33414;DHT22;60055;41.884;12.534;2022-11-20T02:03:14;14.40;99.90
33414;DHT22;60055;41.884;12.534;2022-11-20T02:05:51;14.40;99.90
33414;DHT22;60055;41.884;12.534;2022-11-20T02:08:18;14.50;99.90
33414;DHT22;60055;41.884;12.534;2022-11-20T02:10:44;14.40;99.90
33414;DHT22;60055;41.884;12.534;2022-11-20T02:13:10;14.10;99.90
33414;DHT22;60055;41.884;12.534;2022-11-20T02:15:54;14.10;99.90
33414;DHT22;60055;41.884;12.534;2022-11-20T02:18:21;14.10;99.90
33414;DHT22;60055;41.884;12.534;2022-11-20T02:21:00;14.20;99.90
33414;DHT22;60055;41.884;12.534;2022-11-20T02:23:38;14.10;99.90
33414;DHT22;60055;41.884;12.534;2022-11-20T02:26:09;14.10;99.90
33414;DHT22;60055;41.884;12.534;2022-11-20T02:28:36;14.10;99.90
33414;DHT22;60055;41.884;12.534;2022-11-20T02:31:01;14.20;99.90
33414;DHT22;60055;41.884;12.534;2022-11-20T02:33:27;14.20;99.90
33414;DHT22;60055;41.884;12.534;2022-11-20T02:35:53;14.10;99.90
33414;DHT22;60055;41.884;12.534;2022-11-20T02:38:19;14.20;99.90
33414;DHT22;60055;41.884;12.534;2022-11-20T02:40:44;14.10;99.90
33414;DHT22;60055;41.884;12.534;2022-11-20T02:43:10;14.10;99.90
33414;DHT22;60055;41.884;12.534;2022-11-20T02:45:36;14.20;99.90
33414;DHT22;60055;41.884;12.534;2022-11-20T02:48:01;14.10;99.90
33414;DHT22;60055;41.884;12.534;2022-11-20T02:50:27;14.10;99.90
33414;DHT22;60055;41.884;12.534;2022-11-20T02:52:53;14.10;99.90
33414;DHT22;60055;41.884;12.534;2022-11-20T02:55:18;14.00;99.90
33414;DHT22;60055;41.884;12.534;2022-11-20T02:57:44;14.00;99.90
33414;DHT22;60055;41.884;12.534;2022-11-20T03:00:10;13.90;99.90
33414;DHT22;60055;41.884;12.534;2022-11-20T03:02:36;14.00;99.90
33414;DHT22;60055;41.884;12.534;2022-11-20T03:05:02;14.00;99.90
33414;DHT22;60055;41.884;12.534;2022-11-20T03:07:28;14.00;99.90
33414;DHT22;60055;41.884;12.534;2022-11-20T03:09:53;14.00;99.90
33414;DHT22;60055;41.884;12.534;2022-11-20T03:12:19;14.00;99.90
33414;DHT22;60055;41.884;12.534;2022-11-20T03:14:45;13.90;99.90
33414;DHT22;60055;41.884;12.534;2022-11-20T03:17:10;13.90;99.90
33414;DHT22;60055;41.884;12.534;2022-11-20T03:19:36;13.90;99.90
33414;DHT22;60055;41.884;12.534;2022-11-20T03:22:02;13.90;99.90
33414;DHT22;60055;41.884;12.534;2022-11-20T03:24:28;13.90;99.90
33414;DHT22;60055;41.884;12.534;2022-11-20T03:26:53;13.80;99.90
33414;DHT22;60055;41.884;12.534;2022-11-20T03:29:19;13.60;99.90
33414;DHT22;60055;41.884;12.534;2022-11-20T03:31:45;13.60;99.90
33414;DHT22;60055;41.884;12.534;2022-11-20T03:34:11;13.40;99.90
33414;DHT22;60055;41.884;12.534;2022-11-20T03:36:41;13.40;99.90
33414;DHT22;60055;41.884;12.534;2022-11-20T03:39:07;13.50;99.90
33414;DHT22;60055;41.884;12.534;2022-11-20T03:41:38;13.40;99.90
33414;DHT22;60055;41.884;12.534;2022-11-20T03:44:05;13.30;99.90
33414;DHT22;60055;41.884;12.534;2022-11-20T03:46:31;13.40;99.90
33414;DHT22;60055;41.884;12.534;2022-11-20T03:48:57;13.10;99.90
33414;DHT22;60055;41.884;12.534;2022-11-20T03:51:31;13.10;99.90
33414;DHT22;60055;41.884;12.534;2022-11-20T03:54:02;12.90;99.90
33414;DHT22;60055;41.884;12.534;2022-11-20T03:56:30;12.90;99.90
33414;DHT22;60055;41.884;12.534;2022-11-20T03:58:56;13.00;99.90
33414;DHT22;60055;41.884;12.534;2022-11-20T04:01:28;12.90;99.90
33414;DHT22;60055;41.884;12.534;2022-11-20T04:03:56;12.90;99.90
33414;DHT22;60055;41.884;12.534;2022-11-20T04:06:24;12.90;99.90
33414;DHT22;60055;41.884;12.534;2022-11-20T04:08:50;13.00;99.90
33414;DHT22;60055;41.884;12.534;2022-11-20T04:11:19;12.90;99.90
33414;DHT22;60055;41.884;12.534;2022-11-20T04:13:56;13.00;99.90
33414;DHT22;60055;41.884;12.534;2022-11-20T04:16:35;12.90;99.90
33414;DHT22;60055;41.884;12.534;2022-11-20T04:19:02;12.80;99.90
33414;DHT22;60055;41.884;12.534;2022-11-20T04:21:28;12.70;99.90
33414;DHT22;60055;41.884;12.534;2022-11-20T04:23:54;12.80;99.90
33414;DHT22;60055;41.884;12.534;2022-11-20T04:26:23;12.50;99.90
33414;DHT22;60055;41.884;12.534;2022-11-20T04:28:49;12.30;99.90
33414;DHT22;60055;41.884;12.534;2022-11-20T04:31:17;12.40;99.90
33414;DHT22;60055;41.884;12.534;2022-11-20T04:33:44;12.20;99.90
33414;DHT22;60055;41.884;12.534;2022-11-20T04:36:12;12.30;99.90
33414;DHT22;60055;41.884;12.534;2022-11-20T04:38:38;12.00;99.90
33414;DHT22;60055;41.884;12.534;2022-11-20T04:41:08;12.10;99.90
33414;DHT22;60055;41.884;12.534;2022-11-20T04:43:34;12.30;99.90
33414;DHT22;60055;41.884;12.534;2022-11-20T04:46:01;12.40;99.90
33414;DHT22;60055;41.884;12.534;2022-11-20T04:48:28;12.30;99.90
33414;DHT22;60055;41.884;12.534;2022-11-20T04:50:54;12.20;99.90
33414;DHT22;60055;41.884;12.534;2022-11-20T04:53:21;12.00;99.90
33414;DHT22;60055;41.884;12.534;2022-11-20T04:55:47;12.10;99.90
33414;DHT22;60055;41.884;12.534;2022-11-20T04:58:13;12.10;99.90
33414;DHT22;60055;41.884;12.534;2022-11-20T05:00:39;12.20;99.90
33414;DHT22;60055;41.884;12.534;2022-11-20T05:03:05;12.10;99.90
33414;DHT22;60055;41.884;12.534;2022-11-20T05:05:31;12.10;99.90
33414;DHT22;60055;41.884;12.534;2022-11-20T05:07:57;12.20;99.90
33414;DHT22;60055;41.884;12.534;2022-11-20T05:10:25;12.20;99.90
33414;DHT22;60055;41.884;12.534;2022-11-20T05:12:50;12.20;99.90
33414;DHT22;60055;41.884;12.534;2022-11-20T05:15:16;12.30;99.90
33414;DHT22;60055;41.884;12.534;2022-11-20T05:17:49;12.30;99.90
33414;DHT22;60055;41.884;12.534;2022-11-20T05:20:16;12.20;99.90
33414;DHT22;60055;41.884;12.534;2022-11-20T05:22:42;12.30;99.90
33414;DHT22;60055;41.884;12.534;2022-11-20T05:25:08;12.30;99.90
33414;DHT22;60055;41.884;12.534;2022-11-20T05:27:34;12.30;99.90
33414;DHT22;60055;41.884;12.534;2022-11-20T05:29:59;12.20;99.90
33414;DHT22;60055;41.884;12.534;2022-11-20T05:32:25;12.20;99.90
33414;DHT22;60055;41.884;12.534;2022-11-20T05:34:51;12.30;99.90
33414;DHT22;60055;41.884;12.534;2022-11-20T05:37:17;12.30;99.90
33414;DHT22;60055;41.884;12.534;2022-11-20T05:39:45;12.30;99.90
33414;DHT22;60055;41.884;12.534;2022-11-20T05:42:11;12.30;99.90
33414;DHT22;60055;41.884;12.534;2022-11-20T05:44:55;12.30;99.90
33414;DHT22;60055;41.884;12.534;2022-11-20T05:47:21;12.20;99.90
33414;DHT22;60055;41.884;12.534;2022-11-20T05:49:47;12.20;99.90
33414;DHT22;60055;41.884;12.534;2022-11-20T05:52:12;12.30;99.90
33414;DHT22;60055;41.884;12.534;2022-11-20T05:54:38;12.30;99.90
33414;DHT22;60055;41.884;12.534;2022-11-20T05:57:04;12.30;99.90
33414;DHT22;60055;41.884;12.534;2022-11-20T05:59:33;12.20;99.90
33414;DHT22;60055;41.884;12.534;2022-11-20T06:01:58;12.20;99.90
33414;DHT22;60055;41.884;12.534;2022-11-20T06:04:24;12.20;99.90
33414;DHT22;60055;41.884;12.534;2022-11-20T06:06:49;12.20;99.90
33414;DHT22;60055;41.884;12.534;2022-11-20T06:09:15;12.20;99.90
33414;DHT22;60055;41.884;12.534;2022-11-20T06:11:41;12.10;99.90
33414;DHT22;60055;41.884;12.534;2022-11-20T06:14:06;12.10;99.90
33414;DHT22;60055;41.884;12.534;2022-11-20T06:16:32;12.10;99.90
33414;DHT22;60055;41.884;12.534;2022-11-20T06:18:57;12.10;99.90
33414;DHT22;60055;41.884;12.534;2022-11-20T06:21:23;12.20;99.90
33414;DHT22;60055;41.884;12.534;2022-11-20T06:23:50;12.20;99.90
33414;DHT22;60055;41.884;12.534;2022-11-20T06:26:18;12.20;99.90
33414;DHT22;60055;41.884;12.534;2022-11-20T06:28:46;12.10;99.90
33414;DHT22;60055;41.884;12.534;2022-11-20T06:31:13;12.10;99.90
33414;DHT22;60055;41.884;12.534;2022-11-20T06:33:40;12.10;99.90
33414;DHT22;60055;41.884;12.534;2022-11-20T06:36:05;12.10;99.90
33414;DHT22;60055;41.884;12.534;2022-11-20T06:38:31;12.20;99.90
33414;DHT22;60055;41.884;12.534;2022-11-20T06:40:57;12.30;99.90
33414;DHT22;60055;41.884;12.534;2022-11-20T06:43:24;12.30;99.90
33414;DHT22;60055;41.884;12.534;2022-11-20T06:45:55;12.30;99.90
33414;DHT22;60055;41.884;12.534;2022-11-20T06:48:25;12.30;99.90
33414;DHT22;60055;41.884;12.534;2022-11-20T06:50:51;12.30;99.90
33414;DHT22;60055;41.884;12.534;2022-11-20T06:53:17;12.20;99.90
33414;DHT22;60055;41.884;12.534;2022-11-20T06:55:46;12.40;99.90
33414;DHT22;60055;41.884;12.534;2022-11-20T06:58:14;12.20;99.90
33414;DHT22;60055;41.884;12.534;2022-11-20T07:00:43;12.20;99.90
33414;DHT22;60055;41.884;12.534;2022-11-20T07:03:10;12.30;99.90
33414;DHT22;60055;41.884;12.534;2022-11-20T07:05:36;12.30;99.90
33414;DHT22;60055;41.884;12.534;2022-11-20T07:08:03;12.20;99.90
33414;DHT22;60055;41.884;12.534;2022-11-20T07:10:30;12.40;99.90
33414;DHT22;60055;41.884;12.534;2022-11-20T07:12:56;12.10;99.90
33414;DHT22;60055;41.884;12.534;2022-11-20T07:15:25;12.20;99.90
33414;DHT22;60055;41.884;12.534;2022-11-20T07:17:51;12.10;99.90
33414;DHT22;60055;41.884;12.534;2022-11-20T07:36:55;12.40;99.90
33414;DHT22;60055;41.884;12.534;2022-11-20T07:39:23;12.40;99.90
33414;DHT22;60055;41.884;12.534;2022-11-20T07:41:53;12.30;99.90
33414;DHT22;60055;41.884;12.534;2022-11-20T07:44:19;12.50;99.90
33414;DHT22;60055;41.884;12.534;2022-11-20T07:46:44;12.50;99.90
33414;DHT22;60055;41.884;12.534;2022-11-20T07:49:10;12.60;99.90
33414;DHT22;60055;41.884;12.534;2022-11-20T07:51:39;12.60;99.90
33414;DHT22;60055;41.884;12.534;2022-11-20T07:54:26;12.60;99.90
33414;DHT22;60055;41.884;12.534;2022-11-20T07:56:55;12.60;99.90
33414;DHT22;60055;41.884;12.534;2022-11-20T07:59:23;12.60;99.90
33414;DHT22;60055;41.884;12.534;2022-11-20T08:01:49;12.50;99.90
33414;DHT22;60055;41.884;12.534;2022-11-20T08:04:17;12.40;99.90
33414;DHT22;60055;41.884;12.534;2022-11-20T08:06:43;12.30;99.90
33414;DHT22;60055;41.884;12.534;2022-11-20T08:09:09;12.20;99.90
33414;DHT22;60055;41.884;12.534;2022-11-20T08:11:37;12.30;99.90
33414;DHT22;60055;41.884;12.534;2022-11-20T08:14:21;12.10;99.90
33414;DHT22;60055;41.884;12.534;2022-11-20T08:16:51;12.10;99.90
33414;DHT22;60055;41.884;12.534;2022-11-20T08:19:18;12.20;99.90
33414;DHT22;60055;41.884;12.534;2022-11-20T08:21:44;12.40;99.90
33414;DHT22;60055;41.884;12.534;2022-11-20T08:24:11;12.30;99.90
33414;DHT22;60055;41.884;12.534;2022-11-20T08:26:38;12.30;99.90
33414;DHT22;60055;41.884;12.534;2022-11-20T08:29:04;12.50;99.90
33414;DHT22;60055;41.884;12.534;2022-11-20T08:31:31;12.40;99.90
33414;DHT22;60055;41.884;12.534;2022-11-20T08:33:58;12.30;99.90
33414;DHT22;60055;41.884;12.534;2022-11-20T08:36:25;12.40;99.90
33414;DHT22;60055;41.884;12.534;2022-11-20T08:38:53;12.40;99.90
33414;DHT22;60055;41.884;12.534;2022-11-20T08:41:24;12.50;99.90
33414;DHT22;60055;41.884;12.534;2022-11-20T08:44:03;12.40;99.90
33414;DHT22;60055;41.884;12.534;2022-11-20T08:46:37;12.50;99.90
33414;DHT22;60055;41.884;12.534;2022-11-20T08:49:09;12.50;99.90
33414;DHT22;60055;41.884;12.534;2022-11-20T08:51:50;12.60;99.90
33414;DHT22;60055;41.884;12.534;2022-11-20T08:54:19;12.70;99.90
33414;DHT22;60055;41.884;12.534;2022-11-20T08:56:50;12.90;99.90
33414;DHT22;60055;41.884;12.534;2022-11-20T08:59:24;13.10;99.90
33414;DHT22;60055;41.884;12.534;2022-11-20T09:01:50;13.00;99.90
33414;DHT22;60055;41.884;12.534;2022-11-20T09:04:16;12.90;99.90
33414;DHT22;60055;41.884;12.534;2022-11-20T09:06:42;13.10;99.90
33414;DHT22;60055;41.884;12.534;2022-11-20T09:09:08;13.30;99.90
33414;DHT22;60055;41.884;12.534;2022-11-20T09:11:34;13.40;99.90
33414;DHT22;60055;41.884;12.534;2022-11-20T09:14:01;13.30;99.90
33414;DHT22;60055;41.884;12.534;2022-11-20T09:16:28;13.60;99.90
33414;DHT22;60055;41.884;12.534;2022-11-20T09:18:54;13.80;99.90
33414;DHT22;60055;41.884;12.534;2022-11-20T09:21:22;13.80;99.90
33414;DHT22;60055;41.884;12.534;2022-11-20T09:23:51;14.00;99.90
33414;DHT22;60055;41.884;12.534;2022-11-20T09:26:19;14.30;99.90
33414;DHT22;60055;41.884;12.534;2022-11-20T09:28:49;14.20;99.90
33414;DHT22;60055;41.884;12.534;2022-11-20T09:31:22;13.90;99.90
33414;DHT22;60055;41.884;12.534;2022-11-20T09:33:49;13.70;99.90
33414;DHT22;60055;41.884;12.534;2022-11-20T09:36:15;13.90;99.90
33414;DHT22;60055;41.884;12.534;2022-11-20T09:38:42;13.80;99.90
33414;DHT22;60055;41.884;12.534;2022-11-20T09:42:03;13.80;99.90
33414;DHT22;60055;41.884;12.534;2022-11-20T09:44:45;13.90;99.90
33414;DHT22;60055;41.884;12.534;2022-11-20T09:50:20;14.40;99.90
33414;DHT22;60055;41.884;12.534;2022-11-20T09:56:01;14.20;99.90
33414;DHT22;60055;41.884;12.534;2022-11-20T09:58:41;13.90;99.90
33414;DHT22;60055;41.884;12.534;2022-11-20T10:01:12;14.10;99.90
33414;DHT22;60055;41.884;12.534;2022-11-20T10:09:16;14.10;99.90
33414;DHT22;60055;41.884;12.534;2022-11-20T10:22:49;14.50;99.90
33414;DHT22;60055;41.884;12.534;2022-11-20T10:25:22;14.50;99.90
33414;DHT22;60055;41.884;12.534;2022-11-20T10:30:43;14.50;99.90
33414;DHT22;60055;41.884;12.534;2022-11-20T10:33:22;14.50;99.90
33414;DHT22;60055;41.884;12.534;2022-11-20T10:36:10;14.50;99.90
33414;DHT22;60055;41.884;12.534;2022-11-20T10:38:56;14.60;99.90
33414;DHT22;60055;41.884;12.534;2022-11-20T10:41:34;14.50;99.90
33414;DHT22;60055;41.884;12.534;2022-11-20T10:44:05;14.50;99.90
33414;DHT22;60055;41.884;12.534;2022-11-20T10:46:44;14.70;99.90
33414;DHT22;60055;41.884;12.534;2022-11-20T10:49:32;14.70;99.90
33414;DHT22;60055;41.884;12.534;2022-11-20T10:55:03;14.80;99.90
33414;DHT22;60055;41.884;12.534;2022-11-20T11:00:24;14.90;99.90
33414;DHT22;60055;41.884;12.534;2022-11-20T11:02:52;15.10;99.90
33414;DHT22;60055;41.884;12.534;2022-11-20T11:05:41;14.90;99.90
33414;DHT22;60055;41.884;12.534;2022-11-20T11:08:15;14.90;99.90
33414;DHT22;60055;41.884;12.534;2022-11-20T11:10:51;15.10;99.90
33414;DHT22;60055;41.884;12.534;2022-11-20T11:13:28;15.30;99.90
33414;DHT22;60055;41.884;12.534;2022-11-20T11:15:58;15.30;99.90
33414;DHT22;60055;41.884;12.534;2022-11-20T11:18:29;15.30;99.90
33414;DHT22;60055;41.884;12.534;2022-11-20T11:20:59;15.30;99.90
33414;DHT22;60055;41.884;12.534;2022-11-20T11:23:34;15.60;99.90
33414;DHT22;60055;41.884;12.534;2022-11-20T11:26:02;15.20;99.90
33414;DHT22;60055;41.884;12.534;2022-11-20T11:28:32;15.20;99.90
33414;DHT22;60055;41.884;12.534;2022-11-20T11:30:58;15.20;99.90
33414;DHT22;60055;41.884;12.534;2022-11-20T11:33:30;15.10;99.90
33414;DHT22;60055;41.884;12.534;2022-11-20T11:35:59;15.30;99.90
33414;DHT22;60055;41.884;12.534;2022-11-20T11:38:39;15.40;99.90
33414;DHT22;60055;41.884;12.534;2022-11-20T11:41:12;15.50;99.90
33414;DHT22;60055;41.884;12.534;2022-11-20T11:43:48;15.50;99.90
33414;DHT22;60055;41.884;12.534;2022-11-20T11:46:35;15.60;99.90
33414;DHT22;60055;41.884;12.534;2022-11-20T11:51:38;15.70;99.90
33414;DHT22;60055;41.884;12.534;2022-11-20T11:54:15;15.80;99.90
33414;DHT22;60055;41.884;12.534;2022-11-20T11:56:43;15.90;99.90
33414;DHT22;60055;41.884;12.534;2022-11-20T11:59:14;15.90;99.90
33414;DHT22;60055;41.884;12.534;2022-11-20T12:01:43;15.80;99.90
33414;DHT22;60055;41.884;12.534;2022-11-20T12:04:21;15.90;99.90
33414;DHT22;60055;41.884;12.534;2022-11-20T12:07:01;16.10;99.90
33414;DHT22;60055;41.884;12.534;2022-11-20T12:09:37;15.90;99.90
33414;DHT22;60055;41.884;12.534;2022-11-20T12:15:16;15.90;99.90
33414;DHT22;60055;41.884;12.534;2022-11-20T12:17:47;15.80;99.90
33414;DHT22;60055;41.884;12.534;2022-11-20T12:20:18;15.90;99.90
33414;DHT22;60055;41.884;12.534;2022-11-20T12:23:20;15.80;99.90
33414;DHT22;60055;41.884;12.534;2022-11-20T12:26:06;15.80;99.90
33414;DHT22;60055;41.884;12.534;2022-11-20T12:28:50;16.00;99.90
33414;DHT22;60055;41.884;12.534;2022-11-20T12:34:39;16.20;99.90
33414;DHT22;60055;41.884;12.534;2022-11-20T12:43:22;15.90;99.90
33414;DHT22;60055;41.884;12.534;2022-11-20T12:49:25;16.00;99.90
33414;DHT22;60055;41.884;12.534;2022-11-20T12:52:06;16.10;99.90
33414;DHT22;60055;41.884;12.534;2022-11-20T12:57:41;15.90;99.90
33414;DHT22;60055;41.884;12.534;2022-11-20T13:00:34;16.10;99.90
33414;DHT22;60055;41.884;12.534;2022-11-20T13:05:49;16.00;99.90
33414;DHT22;60055;41.884;12.534;2022-11-20T13:08:37;16.20;99.90
33414;DHT22;60055;41.884;12.534;2022-11-20T13:14:40;15.90;99.90
33414;DHT22;60055;41.884;12.534;2022-11-20T13:17:35;16.00;99.90
33414;DHT22;60055;41.884;12.534;2022-11-20T13:20:06;15.90;99.90
33414;DHT22;60055;41.884;12.534;2022-11-20T13:22:49;16.00;99.90
33414;DHT22;60055;41.884;12.534;2022-11-20T13:25:30;16.10;99.90
33414;DHT22;60055;41.884;12.534;2022-11-20T13:28:02;16.00;99.90
33414;DHT22;60055;41.884;12.534;2022-11-20T13:30:36;15.80;99.90
33414;DHT22;60055;41.884;12.534;2022-11-20T13:33:37;15.70;99.90
33414;DHT22;60055;41.884;12.534;2022-11-20T13:36:27;15.70;99.90
33414;DHT22;60055;41.884;12.534;2022-11-20T13:39:10;15.60;99.90
33414;DHT22;60055;41.884;12.534;2022-11-20T13:41:37;15.50;99.90
33414;DHT22;60055;41.884;12.534;2022-11-20T13:44:27;15.60;99.90
33414;DHT22;60055;41.884;12.534;2022-11-20T13:47:00;15.60;99.90
33414;DHT22;60055;41.884;12.534;2022-11-20T13:49:41;15.70;99.90
33414;DHT22;60055;41.884;12.534;2022-11-20T13:55:38;15.60;99.90
33414;DHT22;60055;41.884;12.534;2022-11-20T14:01:05;15.50;99.90
33414;DHT22;60055;41.884;12.534;2022-11-20T14:03:36;15.50;99.90
33414;DHT22;60055;41.884;12.534;2022-11-20T14:06:14;15.40;99.90
33414;DHT22;60055;41.884;12.534;2022-11-20T14:08:53;15.40;99.90
33414;DHT22;60055;41.884;12.534;2022-11-20T14:11:27;15.40;99.90
33414;DHT22;60055;41.884;12.534;2022-11-20T14:16:27;15.40;99.90
33414;DHT22;60055;41.884;12.534;2022-11-20T14:18:55;15.30;99.90
33414;DHT22;60055;41.884;12.534;2022-11-20T14:21:27;15.20;99.90
33414;DHT22;60055;41.884;12.534;2022-11-20T14:24:03;15.30;99.90
33414;DHT22;60055;41.884;12.534;2022-11-20T14:26:33;15.20;99.90
33414;DHT22;60055;41.884;12.534;2022-11-20T14:29:29;15.20;99.90
33414;DHT22;60055;41.884;12.534;2022-11-20T14:31:56;15.10;99.90
33414;DHT22;60055;41.884;12.534;2022-11-20T14:34:31;15.10;99.90
33414;DHT22;60055;41.884;12.534;2022-11-20T14:37:04;15.20;99.90
33414;DHT22;60055;41.884;12.534;2022-11-20T14:39:52;15.10;99.90
33414;DHT22;60055;41.884;12.534;2022-11-20T14:42:24;15.10;99.90
33414;DHT22;60055;41.884;12.534;2022-11-20T14:44:55;15.00;99.90
33414;DHT22;60055;41.884;12.534;2022-11-20T14:47:27;14.90;99.90
33414;DHT22;60055;41.884;12.534;2022-11-20T14:49:55;14.90;99.90
33414;DHT22;60055;41.884;12.534;2022-11-20T14:52:25;14.90;99.90
33414;DHT22;60055;41.884;12.534;2022-11-20T14:54:56;14.90;99.90
33414;DHT22;60055;41.884;12.534;2022-11-20T14:57:33;14.90;99.90
33414;DHT22;60055;41.884;12.534;2022-11-20T15:02:42;14.90;99.90
33414;DHT22;60055;41.884;12.534;2022-11-20T15:05:08;14.80;99.90
33414;DHT22;60055;41.884;12.534;2022-11-20T15:07:44;14.80;99.90
33414;DHT22;60055;41.884;12.534;2022-11-20T15:13:11;14.80;99.90
33414;DHT22;60055;41.884;12.534;2022-11-20T15:15:54;14.70;99.90
33414;DHT22;60055;41.884;12.534;2022-11-20T15:21:17;14.60;99.90
33414;DHT22;60055;41.884;12.534;2022-11-20T15:23:48;14.60;99.90
33414;DHT22;60055;41.884;12.534;2022-11-20T15:26:26;14.60;99.90
33414;DHT22;60055;41.884;12.534;2022-11-20T15:28:53;14.60;99.90
33414;DHT22;60055;41.884;12.534;2022-11-20T15:31:22;14.60;99.90
33414;DHT22;60055;41.884;12.534;2022-11-20T15:33:49;14.50;99.90
33414;DHT22;60055;41.884;12.534;2022-11-20T15:36:15;14.40;99.90
33414;DHT22;60055;41.884;12.534;2022-11-20T15:38:47;14.40;99.90
33414;DHT22;60055;41.884;12.534;2022-11-20T15:41:28;14.30;99.90
33414;DHT22;60055;41.884;12.534;2022-11-20T15:43:56;14.30;99.90
33414;DHT22;60055;41.884;12.534;2022-11-20T15:46:26;14.40;99.90
33414;DHT22;60055;41.884;12.534;2022-11-20T15:49:02;14.30;99.90
33414;DHT22;60055;41.884;12.534;2022-11-20T15:51:34;14.30;99.90
33414;DHT22;60055;41.884;12.534;2022-11-20T15:54:00;14.40;99.90
33414;DHT22;60055;41.884;12.534;2022-11-20T15:56:27;14.20;99.90
33414;DHT22;60055;41.884;12.534;2022-11-20T15:59:04;14.10;99.90
33414;DHT22;60055;41.884;12.534;2022-11-20T16:01:32;14.10;99.90
33414;DHT22;60055;41.884;12.534;2022-11-20T16:04:09;14.00;99.90
33414;DHT22;60055;41.884;12.534;2022-11-20T16:06:46;14.00;99.90
33414;DHT22;60055;41.884;12.534;2022-11-20T16:09:17;13.90;99.90
33414;DHT22;60055;41.884;12.534;2022-11-20T16:11:46;13.80;99.90
33414;DHT22;60055;41.884;12.534;2022-11-20T16:14:12;13.80;99.90
33414;DHT22;60055;41.884;12.534;2022-11-20T16:17:00;13.80;99.90
33414;DHT22;60055;41.884;12.534;2022-11-20T16:19:39;13.80;99.90
33414;DHT22;60055;41.884;12.534;2022-11-20T16:22:05;13.70;99.90
33414;DHT22;60055;41.884;12.534;2022-11-20T16:24:31;13.70;99.90
33414;DHT22;60055;41.884;12.534;2022-11-20T16:27:00;13.70;99.90
33414;DHT22;60055;41.884;12.534;2022-11-20T16:29:28;13.60;99.90
33414;DHT22;60055;41.884;12.534;2022-11-20T16:31:56;13.60;99.90
33414;DHT22;60055;41.884;12.534;2022-11-20T16:34:26;13.60;99.90
33414;DHT22;60055;41.884;12.534;2022-11-20T16:36:56;13.50;99.90
33414;DHT22;60055;41.884;12.534;2022-11-20T16:39:27;13.50;99.90
33414;DHT22;60055;41.884;12.534;2022-11-20T16:41:54;13.50;99.90
33414;DHT22;60055;41.884;12.534;2022-11-20T16:44:30;13.40;99.90
33414;DHT22;60055;41.884;12.534;2022-11-20T16:46:57;13.40;99.90
33414;DHT22;60055;41.884;12.534;2022-11-20T16:49:26;13.40;99.90
33414;DHT22;60055;41.884;12.534;2022-11-20T16:51:53;13.40;99.90
33414;DHT22;60055;41.884;12.534;2022-11-20T16:54:22;13.60;99.90
33414;DHT22;60055;41.884;12.534;2022-11-20T16:56:54;13.50;99.90
33414;DHT22;60055;41.884;12.534;2022-11-20T16:59:21;13.40;99.90
33414;DHT22;60055;41.884;12.534;2022-11-20T17:01:47;13.30;99.90
33414;DHT22;60055;41.884;12.534;2022-11-20T17:04:13;13.30;99.90
33414;DHT22;60055;41.884;12.534;2022-11-20T17:06:42;13.40;99.90
33414;DHT22;60055;41.884;12.534;2022-11-20T17:09:12;13.30;99.90
33414;DHT22;60055;41.884;12.534;2022-11-20T17:11:39;13.30;99.90
33414;DHT22;60055;41.884;12.534;2022-11-20T17:14:06;13.40;99.90